Time;durP1;ratioP1;P1;durP2;ratioP2;P2;SDS_P1;SDS_P2;PMS_P1;PMS_P2;Temp;Humidity;BMP_temperature;BMP_pressure;BME280_temperature;BME280_humidity;BME280_pressure;Samples;Min_cycle;Max_cycle;Signal;HPM_P1;HPM_P2
2022/10/08 00:01:21;;;;;;;3.03;2.47;;;;;;;;;;5027519;28;20315;-59
2022/10/08 00:03:51;;;;;;;2.97;2.53;;;;;;;;;;5027792;28;20331;-59
2022/10/08 00:06:18;;;;;;;4.63;2.30;;;;;;;;;;5026723;28;20824;-58
2022/10/08 00:08:48;;;;;;;2.00;1.90;;;;;;;;;;5027936;28;20227;-58
2022/10/08 00:11:18;;;;;;;2.40;2.20;;;;;;;;;;5026982;28;20208;-59
2022/10/08 00:13:46;;;;;;;2.33;2.13;;;;;;;;;;5027909;28;20208;-59
2022/10/08 00:16:15;;;;;;;5.00;2.67;;;;;;;;;;5026741;28;20228;-58
2022/10/08 00:18:43;;;;;;;2.03;1.93;;;;;;;;;;5027537;28;20208;-58
2022/10/08 00:21:13;;;;;;;3.53;2.40;;;;;;;;;;5026938;28;20572;-59
2022/10/08 00:23:40;;;;;;;3.43;2.40;;;;;;;;;;5029454;28;20878;-58
2022/10/08 00:26:07;;;;;;;5.17;2.20;;;;;;;;;;5030504;28;20228;-58
2022/10/08 00:28:37;;;;;;;3.97;2.43;;;;;;;;;;5031127;28;20212;-58
2022/10/08 00:31:08;;;;;;;3.10;2.43;;;;;;;;;;5031041;28;20231;-58
2022/10/08 00:33:35;;;;;;;2.50;2.30;;;;;;;;;;5030813;28;20211;-59
2022/10/08 00:36:03;;;;;;;5.37;2.27;;;;;;;;;;5030368;28;20799;-59
2022/10/08 00:38:30;;;;;;;3.07;2.87;;;;;;;;;;5030775;28;20690;-58
2022/10/08 00:40:58;;;;;;;2.67;2.47;;;;;;;;;;5030448;28;20584;-59
2022/10/08 00:43:41;;;;;;;2.90;2.50;;;;;;;;;;5026263;28;20754;-59
2022/10/08 00:46:16;;;;;;;4.27;2.67;;;;;;;;;;5013246;28;20683;-58
2022/10/08 00:48:43;;;;;;;4.93;2.70;;;;;;;;;;5016129;28;20208;-59
2022/10/08 00:51:11;;;;;;;5.13;2.13;;;;;;;;;;5030056;28;20212;-59
2022/10/08 00:53:38;;;;;;;2.87;2.40;;;;;;;;;;5030194;28;20216;-59
2022/10/08 00:56:06;;;;;;;2.90;2.70;;;;;;;;;;5030382;28;20239;-58
2022/10/08 00:58:34;;;;;;;5.10;2.63;;;;;;;;;;5030606;28;20236;-59
2022/10/08 01:01:03;;;;;;;3.93;2.87;;;;;;;;;;5030207;28;20204;-58
2022/10/08 01:03:30;;;;;;;3.23;2.93;;;;;;;;;;5029147;28;20228;-59
2022/10/08 01:06:00;;;;;;;7.80;2.77;;;;;;;;;;5027740;28;20208;-59
2022/10/08 01:08:32;;;;;;;3.80;2.70;;;;;;;;;;5029607;28;20197;-58
2022/10/08 01:11:04;;;;;;;3.07;2.43;;;;;;;;;;5010685;28;20243;-58
2022/10/08 01:13:37;;;;;;;3.70;3.17;;;;;;;;;;5019327;28;20204;-59
2022/10/08 01:16:10;;;;;;;2.80;2.40;;;;;;;;;;5011614;28;20209;-58
2022/10/08 01:18:42;;;;;;;2.43;2.30;;;;;;;;;;5029870;28;20228;-59
2022/10/08 01:21:12;;;;;;;4.50;2.80;;;;;;;;;;5030139;28;20216;-59
2022/10/08 01:24:00;;;;;;;5.20;2.60;;;;;;;;;;5029299;28;20212;-59
2022/10/08 01:26:35;;;;;;;2.87;2.53;;;;;;;;;;5004217;28;20259;-59
2022/10/08 01:29:06;;;;;;;3.20;3.00;;;;;;;;;;5027123;28;20302;-60
2022/10/08 01:31:35;;;;;;;2.07;1.97;;;;;;;;;;5029636;28;20282;-60
2022/10/08 01:34:05;;;;;;;3.80;2.37;;;;;;;;;;5028987;28;20215;-60
2022/10/08 01:36:35;;;;;;;8.13;2.80;;;;;;;;;;5029319;28;20332;-60
2022/10/08 01:39:05;;;;;;;2.70;2.43;;;;;;;;;;5028562;28;20223;-59
2022/10/08 01:41:57;;;;;;;2.60;2.40;;;;;;;;;;5021718;28;20209;-60
2022/10/08 01:44:28;;;;;;;2.13;2.03;;;;;;;;;;5008104;28;20220;-59
2022/10/08 01:47:05;;;;;;;2.53;2.40;;;;;;;;;;5021695;28;20204;-59
2022/10/08 01:49:40;;;;;;;2.30;2.10;;;;;;;;;;5027693;28;20204;-59
2022/10/08 01:52:11;;;;;;;2.70;2.40;;;;;;;;;;5028466;28;20306;-61
2022/10/08 01:54:39;;;;;;;4.67;2.50;;;;;;;;;;5025207;28;20219;-58
2022/10/08 01:57:09;;;;;;;4.03;2.70;;;;;;;;;;5027817;28;20259;-59
2022/10/08 01:59:40;;;;;;;2.27;1.80;;;;;;;;;;5028644;28;20207;-59
2022/10/08 02:02:10;;;;;;;3.50;2.43;;;;;;;;;;5028742;28;20204;-61
2022/10/08 02:04:38;;;;;;;2.40;2.20;;;;;;;;;;5028736;28;20221;-59
2022/10/08 02:07:07;;;;;;;2.67;2.03;;;;;;;;;;5028501;28;20226;-59
2022/10/08 02:09:35;;;;;;;2.53;2.13;;;;;;;;;;5028207;28;20215;-59
2022/10/08 02:12:02;;;;;;;3.17;2.70;;;;;;;;;;5028029;28;20226;-58
2022/10/08 02:14:30;;;;;;;3.70;2.20;;;;;;;;;;5028029;28;20602;-58
2022/10/08 02:17:03;;;;;;;4.43;2.40;;;;;;;;;;5027277;28;20204;-59
2022/10/08 02:19:35;;;;;;;2.43;2.10;;;;;;;;;;5027069;28;20200;-60
2022/10/08 02:22:04;;;;;;;2.47;2.27;;;;;;;;;;5025842;28;20230;-59
2022/10/08 02:24:34;;;;;;;3.77;2.20;;;;;;;;;;5027897;28;20536;-59
2022/10/08 02:27:04;;;;;;;1.97;1.87;;;;;;;;;;5025474;28;20247;-59
2022/10/08 02:29:36;;;;;;;3.47;2.83;;;;;;;;;;5027930;28;20247;-59
2022/10/08 02:32:07;;;;;;;3.87;2.53;;;;;;;;;;5024518;28;20203;-59
2022/10/08 02:34:36;;;;;;;1.83;1.77;;;;;;;;;;5023914;28;20216;-58
2022/10/08 02:37:05;;;;;;;4.47;2.17;;;;;;;;;;5023205;28;20209;-59
2022/10/08 02:39:34;;;;;;;2.30;2.07;;;;;;;;;;5027748;28;20208;-59
2022/10/08 02:42:03;;;;;;;4.27;2.30;;;;;;;;;;5026998;28;20212;-59
2022/10/08 02:44:33;;;;;;;1.90;1.80;;;;;;;;;;5028091;28;20200;-59
2022/10/08 02:47:02;;;;;;;4.30;1.77;;;;;;;;;;5026993;28;20219;-59
2022/10/08 02:49:32;;;;;;;1.93;1.83;;;;;;;;;;5026398;28;20213;-59
2022/10/08 02:52:01;;;;;;;2.50;2.30;;;;;;;;;;5028003;28;20675;-58
2022/10/08 02:54:31;;;;;;;4.47;2.20;;;;;;;;;;5011854;28;20259;-59
2022/10/08 02:56:59;;;;;;;2.13;1.90;;;;;;;;;;5028309;28;20208;-59
2022/10/08 02:59:26;;;;;;;2.50;2.30;;;;;;;;;;5027712;28;20219;-59
2022/10/08 03:01:57;;;;;;;3.83;1.97;;;;;;;;;;5027034;28;20208;-59
2022/10/08 03:04:26;;;;;;;1.57;1.47;;;;;;;;;;5027546;28;20676;-59
2022/10/08 03:06:55;;;;;;;2.00;1.70;;;;;;;;;;5027901;28;20200;-58
2022/10/08 03:09:23;;;;;;;2.00;1.90;;;;;;;;;;5026983;28;20208;-60
2022/10/08 03:11:51;;;;;;;2.20;2.00;;;;;;;;;;5026196;28;20204;-59
2022/10/08 03:14:19;;;;;;;2.17;1.97;;;;;;;;;;5026718;28;20205;-60
2022/10/08 03:16:47;;;;;;;1.77;1.67;;;;;;;;;;5027423;28;20209;-59
2022/10/08 03:19:15;;;;;;;1.90;1.80;;;;;;;;;;5026132;28;20231;-59
2022/10/08 03:21:42;;;;;;;1.93;1.83;;;;;;;;;;5026301;28;20208;-59
2022/10/08 03:24:12;;;;;;;2.30;1.83;;;;;;;;;;5025583;28;20208;-59
2022/10/08 03:26:39;;;;;;;2.23;2.13;;;;;;;;;;5023582;28;20973;-59
2022/10/08 03:29:06;;;;;;;2.20;2.10;;;;;;;;;;5025314;28;20207;-59
2022/10/08 03:31:34;;;;;;;2.90;2.40;;;;;;;;;;5025739;28;20201;-59
2022/10/08 03:34:01;;;;;;;2.03;1.93;;;;;;;;;;5025505;28;20657;-60
2022/10/08 03:36:29;;;;;;;2.03;1.93;;;;;;;;;;5025630;28;20208;-59
2022/10/08 03:38:56;;;;;;;2.20;2.07;;;;;;;;;;5025271;28;20228;-60
2022/10/08 03:41:24;;;;;;;2.00;1.90;;;;;;;;;;5024724;28;20204;-59
2022/10/08 03:43:51;;;;;;;2.10;1.90;;;;;;;;;;5026674;28;20232;-60
2022/10/08 03:46:18;;;;;;;4.03;2.40;;;;;;;;;;5024621;28;20196;-60
2022/10/08 03:48:49;;;;;;;2.27;2.10;;;;;;;;;;5025223;28;20212;-59
2022/10/08 03:51:16;;;;;;;4.03;2.10;;;;;;;;;;5026238;28;20372;-59
2022/10/08 03:53:43;;;;;;;3.20;2.07;;;;;;;;;;5024328;28;20200;-59
2022/10/08 03:56:11;;;;;;;2.23;2.13;;;;;;;;;;5025910;28;20219;-60
2022/10/08 03:58:40;;;;;;;4.17;2.40;;;;;;;;;;5029396;28;20228;-59
2022/10/08 04:01:08;;;;;;;2.20;2.10;;;;;;;;;;5030384;28;20215;-60
2022/10/08 04:03:35;;;;;;;1.87;1.77;;;;;;;;;;5030318;28;20227;-60
2022/10/08 04:06:02;;;;;;;1.80;1.70;;;;;;;;;;5030522;28;20225;-59
2022/10/08 04:08:29;;;;;;;1.90;1.80;;;;;;;;;;5030480;28;20218;-60
2022/10/08 04:10:56;;;;;;;1.63;1.53;;;;;;;;;;5030496;28;20204;-59
2022/10/08 04:13:24;;;;;;;2.50;1.83;;;;;;;;;;5030536;28;20215;-59
2022/10/08 04:15:52;;;;;;;1.40;1.37;;;;;;;;;;5029597;28;20204;-59
2022/10/08 04:18:19;;;;;;;1.77;1.67;;;;;;;;;;5029699;28;20224;-59
2022/10/08 04:20:46;;;;;;;2.20;1.70;;;;;;;;;;5030495;28;20212;-60
2022/10/08 04:23:13;;;;;;;1.87;1.77;;;;;;;;;;5030322;28;20205;-60
2022/10/08 04:25:48;;;;;;;3.93;1.80;;;;;;;;;;5029580;28;20642;-60
2022/10/08 04:28:15;;;;;;;1.47;1.47;;;;;;;;;;5029611;28;20208;-59
2022/10/08 04:30:43;;;;;;;4.63;1.67;;;;;;;;;;5029659;28;20224;-59
2022/10/08 04:33:11;;;;;;;1.67;1.57;;;;;;;;;;5029537;28;20224;-59
2022/10/08 04:35:39;;;;;;;1.43;1.43;;;;;;;;;;5029839;28;20204;-60
2022/10/08 04:38:06;;;;;;;2.13;2.03;;;;;;;;;;5028631;28;20228;-60
2022/10/08 04:40:33;;;;;;;3.93;1.93;;;;;;;;;;5029842;28;20209;-61
2022/10/08 04:43:00;;;;;;;8.07;2.00;;;;;;;;;;5029593;28;20208;-60
2022/10/08 04:45:27;;;;;;;8.40;2.30;;;;;;;;;;5028842;28;20213;-60
2022/10/08 04:47:54;;;;;;;6.63;1.87;;;;;;;;;;5027896;28;20207;-60
2022/10/08 04:50:22;;;;;;;2.20;2.00;;;;;;;;;;5027779;28;20438;-60
2022/10/08 04:52:50;;;;;;;1.87;1.77;;;;;;;;;;5028463;28;20219;-60
2022/10/08 04:55:17;;;;;;;2.80;1.53;;;;;;;;;;5027602;28;20208;-60
2022/10/08 04:57:44;;;;;;;1.60;1.50;;;;;;;;;;5028663;28;20208;-60
2022/10/08 05:00:12;;;;;;;1.33;1.33;;;;;;;;;;5025572;28;20211;-61
2022/10/08 05:02:39;;;;;;;2.30;1.77;;;;;;;;;;5026796;28;20207;-61
2022/10/08 05:05:06;;;;;;;3.93;1.77;;;;;;;;;;5029196;28;20204;-60
2022/10/08 05:07:35;;;;;;;2.10;1.90;;;;;;;;;;5028425;28;20209;-60
2022/10/08 05:10:02;;;;;;;3.03;1.93;;;;;;;;;;5027764;28;20215;-60
2022/10/08 05:12:29;;;;;;;7.70;2.00;;;;;;;;;;5027727;28;20213;-61
2022/10/08 05:14:57;;;;;;;2.33;2.10;;;;;;;;;;5028113;28;20204;-60
2022/10/08 05:17:24;;;;;;;3.70;1.90;;;;;;;;;;5027887;28;20200;-61
2022/10/08 05:19:52;;;;;;;1.77;1.70;;;;;;;;;;5027888;28;20235;-61
2022/10/08 05:22:19;;;;;;;2.67;2.10;;;;;;;;;;5027445;28;20295;-60
2022/10/08 05:24:47;;;;;;;4.73;1.90;;;;;;;;;;5026949;28;20222;-61
2022/10/08 05:27:15;;;;;;;2.37;1.53;;;;;;;;;;5027751;28;20660;-61
2022/10/08 05:29:42;;;;;;;1.67;1.40;;;;;;;;;;5028479;28;20213;-60
2022/10/08 05:32:09;;;;;;;1.60;1.50;;;;;;;;;;5027390;28;20219;-60
2022/10/08 05:34:36;;;;;;;3.63;1.73;;;;;;;;;;5027701;28;20625;-60
2022/10/08 05:37:03;;;;;;;4.17;1.70;;;;;;;;;;5027057;28;20200;-61
2022/10/08 05:39:30;;;;;;;2.80;2.20;;;;;;;;;;5027522;28;20231;-61
2022/10/08 05:41:58;;;;;;;2.40;1.80;;;;;;;;;;5027216;28;20208;-60
2022/10/08 05:44:25;;;;;;;2.30;1.87;;;;;;;;;;5027762;28;20592;-60
2022/10/08 05:46:52;;;;;;;3.63;2.20;;;;;;;;;;5027692;28;20212;-61
2022/10/08 05:49:20;;;;;;;3.03;1.80;;;;;;;;;;5028510;28;20212;-60
2022/10/08 05:51:48;;;;;;;1.97;1.87;;;;;;;;;;5027449;28;20706;-60
2022/10/08 05:54:15;;;;;;;6.63;2.00;;;;;;;;;;5027986;28;20205;-60
2022/10/08 05:56:42;;;;;;;1.63;1.60;;;;;;;;;;5027194;28;20200;-60
2022/10/08 05:59:15;;;;;;;1.77;1.67;;;;;;;;;;5027785;28;20231;-61
2022/10/08 06:01:43;;;;;;;1.90;1.80;;;;;;;;;;5027666;28;20260;-60
2022/10/08 06:04:10;;;;;;;1.57;1.50;;;;;;;;;;5027551;28;20216;-60
2022/10/08 06:06:37;;;;;;;3.23;1.60;;;;;;;;;;5027207;28;20315;-60
2022/10/08 06:09:05;;;;;;;3.20;1.80;;;;;;;;;;5027919;28;20218;-60
2022/10/08 06:11:34;;;;;;;1.87;1.77;;;;;;;;;;5027129;28;20223;-60
2022/10/08 06:14:02;;;;;;;2.33;1.70;;;;;;;;;;5026770;28;20220;-61
2022/10/08 06:16:30;;;;;;;4.33;1.60;;;;;;;;;;5025438;28;20212;-61
2022/10/08 06:18:57;;;;;;;1.70;1.60;;;;;;;;;;5028454;28;20599;-61
2022/10/08 06:21:25;;;;;;;10.20;1.97;;;;;;;;;;5026641;28;20244;-60
2022/10/08 06:23:54;;;;;;;2.10;1.90;;;;;;;;;;5026930;28;20301;-60
2022/10/08 06:26:21;;;;;;;1.80;1.70;;;;;;;;;;5026226;28;20236;-61
2022/10/08 06:28:49;;;;;;;2.43;1.90;;;;;;;;;;5025128;28;20232;-60
2022/10/08 06:31:16;;;;;;;4.17;2.10;;;;;;;;;;5027358;28;20204;-60
2022/10/08 06:33:45;;;;;;;1.57;1.47;;;;;;;;;;5028549;28;20205;-60
2022/10/08 06:36:14;;;;;;;4.03;1.93;;;;;;;;;;5027401;28;20208;-60
2022/10/08 06:38:41;;;;;;;3.87;1.40;;;;;;;;;;5027231;28;20232;-60
2022/10/08 06:41:11;;;;;;;1.73;1.60;;;;;;;;;;5027580;28;20212;-60
2022/10/08 06:43:38;;;;;;;2.57;1.70;;;;;;;;;;5026639;28;20302;-60
2022/10/08 06:46:05;;;;;;;2.00;1.70;;;;;;;;;;5027449;28;20204;-60
2022/10/08 06:48:33;;;;;;;5.47;2.37;;;;;;;;;;5027242;28;20289;-60
2022/10/08 06:51:03;;;;;;;6.47;1.63;;;;;;;;;;5026978;28;20296;-60
2022/10/08 06:53:30;;;;;;;1.77;1.70;;;;;;;;;;5027007;28;20205;-60
2022/10/08 06:55:57;;;;;;;1.90;1.80;;;;;;;;;;5027329;28;20216;-60
2022/10/08 06:58:24;;;;;;;5.30;1.87;;;;;;;;;;5027817;28;20202;-60
2022/10/08 07:01:01;;;;;;;2.13;1.77;;;;;;;;;;5027375;28;20211;-59
2022/10/08 07:03:28;;;;;;;2.03;1.87;;;;;;;;;;5026676;28;20228;-60
2022/10/08 07:05:55;;;;;;;2.40;2.13;;;;;;;;;;5027223;28;20204;-60
2022/10/08 07:08:23;;;;;;;3.97;2.10;;;;;;;;;;5027064;28;20212;-61
2022/10/08 07:10:50;;;;;;;2.97;1.87;;;;;;;;;;5026266;28;20211;-61
2022/10/08 07:13:18;;;;;;;2.17;1.83;;;;;;;;;;5026881;28;20212;-60
2022/10/08 07:15:45;;;;;;;2.50;2.00;;;;;;;;;;5026228;28;20220;-60
2022/10/08 07:18:12;;;;;;;3.00;1.70;;;;;;;;;;5027772;28;20204;-60
2022/10/08 07:20:39;;;;;;;3.77;1.80;;;;;;;;;;5023194;28;20228;-58
2022/10/08 07:23:06;;;;;;;4.57;1.87;;;;;;;;;;5026105;28;20208;-59
2022/10/08 07:25:34;;;;;;;1.47;1.47;;;;;;;;;;5026632;28;20752;-61
2022/10/08 07:28:01;;;;;;;1.23;1.23;;;;;;;;;;5025739;28;20710;-59
2022/10/08 07:30:31;;;;;;;1.53;1.43;;;;;;;;;;5026949;28;20204;-60
2022/10/08 07:32:59;;;;;;;1.33;1.23;;;;;;;;;;5026077;28;20328;-61
2022/10/08 07:35:26;;;;;;;1.70;1.60;;;;;;;;;;5025277;28;20240;-62
2022/10/08 07:37:53;;;;;;;1.60;1.50;;;;;;;;;;5026573;28;20663;-60
2022/10/08 07:40:20;;;;;;;1.37;1.37;;;;;;;;;;5027312;28;20266;-60
2022/10/08 07:42:48;;;;;;;2.77;1.50;;;;;;;;;;5026696;28;20223;-60
2022/10/08 07:45:16;;;;;;;1.47;1.47;;;;;;;;;;5015889;28;20628;-60
2022/10/08 07:47:43;;;;;;;1.57;1.57;;;;;;;;;;5024435;28;20204;-59
2022/10/08 07:50:28;;;;;;;2.40;1.30;;;;;;;;;;5022561;28;20197;-60
2022/10/08 07:52:55;;;;;;;2.23;1.50;;;;;;;;;;5015838;28;20216;-60
2022/10/08 07:55:22;;;;;;;4.10;1.30;;;;;;;;;;5026098;28;20204;-60
2022/10/08 07:57:50;;;;;;;3.03;1.27;;;;;;;;;;5026488;28;20586;-60
2022/10/08 08:00:17;;;;;;;1.80;1.20;;;;;;;;;;5026936;28;20251;-60
2022/10/08 08:02:44;;;;;;;5.87;1.30;;;;;;;;;;5026754;28;20223;-60
2022/10/08 08:05:11;;;;;;;2.20;1.40;;;;;;;;;;5026648;28;20212;-60
2022/10/08 08:07:38;;;;;;;1.07;0.80;;;;;;;;;;5027024;28;20223;-60
2022/10/08 08:10:06;;;;;;;1.10;1.00;;;;;;;;;;5026852;28;20208;-60
2022/10/08 08:12:33;;;;;;;3.90;1.00;;;;;;;;;;5007364;28;20715;-60
2022/10/08 08:15:02;;;;;;;0.85;0.85;;;;;;;;;;5007317;28;20213;-60
2022/10/08 08:17:29;;;;;;;1.17;0.85;;;;;;;;;;5024907;28;20212;-60
2022/10/08 08:19:56;;;;;;;4.22;1.23;;;;;;;;;;5026886;28;20453;-61
2022/10/08 08:22:23;;;;;;;0.82;0.82;;;;;;;;;;5026874;28;20411;-61
2022/10/08 08:24:50;;;;;;;2.10;1.00;;;;;;;;;;5027075;28;20223;-61
2022/10/08 08:27:17;;;;;;;1.00;0.90;;;;;;;;;;5026456;28;20236;-61
2022/10/08 08:29:45;;;;;;;0.95;0.95;;;;;;;;;;5026375;28;20671;-61
2022/10/08 08:32:14;;;;;;;0.80;0.80;;;;;;;;;;5026791;28;20590;-61
2022/10/08 08:34:41;;;;;;;2.38;1.00;;;;;;;;;;5026422;28;20204;-61
2022/10/08 08:37:08;;;;;;;0.80;0.80;;;;;;;;;;5026648;28;20295;-61
2022/10/08 08:39:35;;;;;;;2.13;1.33;;;;;;;;;;5026296;28;20228;-61
2022/10/08 08:42:23;;;;;;;1.20;0.98;;;;;;;;;;5026387;28;20235;-61
2022/10/08 08:44:54;;;;;;;11.18;1.50;;;;;;;;;;5023957;28;20212;-61
2022/10/08 08:47:24;;;;;;;3.80;1.48;;;;;;;;;;5029766;28;20192;-61
2022/10/08 08:49:53;;;;;;;2.70;0.85;;;;;;;;;;5030303;28;20876;-60
2022/10/08 08:52:23;;;;;;;2.80;0.90;;;;;;;;;;5029950;28;20251;-61
2022/10/08 08:54:52;;;;;;;0.55;0.55;;;;;;;;;;5029886;28;20215;-60
2022/10/08 08:57:26;;;;;;;4.65;0.95;;;;;;;;;;5022807;28;20259;-60
2022/10/08 08:59:55;;;;;;;2.20;0.70;;;;;;;;;;5029530;28;20235;-61
2022/10/08 09:02:26;;;;;;;5.47;1.15;;;;;;;;;;5028101;28;20215;-61
2022/10/08 09:04:56;;;;;;;0.95;0.95;;;;;;;;;;5029654;28;20223;-60
2022/10/08 09:07:25;;;;;;;2.38;0.80;;;;;;;;;;5029533;28;20583;-61
2022/10/08 09:09:57;;;;;;;0.75;0.75;;;;;;;;;;5029605;28;20200;-61
2022/10/08 09:12:35;;;;;;;1.75;0.65;;;;;;;;;;5029542;28;20209;-60
2022/10/08 09:15:03;;;;;;;1.10;0.70;;;;;;;;;;5029399;28;20208;-60
2022/10/08 09:17:32;;;;;;;1.45;0.98;;;;;;;;;;5029569;28;20240;-60
2022/10/08 09:20:00;;;;;;;1.40;0.93;;;;;;;;;;5028757;28;20224;-60
2022/10/08 09:22:28;;;;;;;1.40;0.80;;;;;;;;;;5028647;28;20295;-60
2022/10/08 09:24:57;;;;;;;3.50;0.60;;;;;;;;;;5028861;28;20211;-60
2022/10/08 09:27:24;;;;;;;1.75;0.98;;;;;;;;;;5009286;28;20805;-60
2022/10/08 09:29:52;;;;;;;1.73;0.70;;;;;;;;;;5024994;28;20834;-60
2022/10/08 09:32:19;;;;;;;0.80;0.80;;;;;;;;;;5028858;28;20213;-60
2022/10/08 09:34:48;;;;;;;1.27;0.75;;;;;;;;;;5026833;28;20243;-60
2022/10/08 09:37:20;;;;;;;1.00;0.50;;;;;;;;;;5028344;28;20208;-60
2022/10/08 09:40:02;;;;;;;0.70;0.70;;;;;;;;;;5028466;28;20228;-60
2022/10/08 09:42:29;;;;;;;5.05;0.68;;;;;;;;;;5027974;28;20996;-60
2022/10/08 09:44:58;;;;;;;0.70;0.70;;;;;;;;;;5027431;28;20208;-60
2022/10/08 09:47:25;;;;;;;0.88;0.88;;;;;;;;;;5028663;28;20228;-60
2022/10/08 09:50:04;;;;;;;1.25;0.77;;;;;;;;;;5028882;28;20551;-60
2022/10/08 09:52:31;;;;;;;0.88;0.88;;;;;;;;;;5009929;28;20304;-61
2022/10/08 09:55:01;;;;;;;1.52;0.88;;;;;;;;;;5025267;28;20215;-60
2022/10/08 09:57:52;;;;;;;3.45;0.70;;;;;;;;;;5028833;28;20212;-60
2022/10/08 10:00:25;;;;;;;0.55;0.55;;;;;;;;;;5020479;28;20228;-60
2022/10/08 10:02:53;;;;;;;0.75;0.70;;;;;;;;;;5027565;28;20228;-60
2022/10/08 10:05:23;;;;;;;0.50;0.50;;;;;;;;;;5028484;28;20208;-59
2022/10/08 10:07:50;;;;;;;4.15;0.52;;;;;;;;;;5028394;28;20215;-60
2022/10/08 10:10:18;;;;;;;1.08;0.63;;;;;;;;;;5028134;28;20200;-61
2022/10/08 10:12:49;;;;;;;4.05;0.60;;;;;;;;;;5028128;28;20212;-59
2022/10/08 10:15:18;;;;;;;2.05;0.70;;;;;;;;;;5028242;28;20215;-60
2022/10/08 10:17:48;;;;;;;1.60;0.70;;;;;;;;;;5028238;28;20204;-60
2022/10/08 10:20:17;;;;;;;0.60;0.60;;;;;;;;;;5027673;28;20235;-60
2022/10/08 10:22:49;;;;;;;1.48;0.50;;;;;;;;;;5027543;28;20628;-61
2022/10/08 10:25:19;;;;;;;1.48;0.50;;;;;;;;;;5028356;28;20213;-61
2022/10/08 10:27:49;;;;;;;4.20;0.77;;;;;;;;;;5028005;28;20231;-66
2022/10/08 10:30:18;;;;;;;0.38;0.38;;;;;;;;;;5022067;28;20208;-61
2022/10/08 10:32:47;;;;;;;0.75;0.60;;;;;;;;;;5025941;28;20450;-61
2022/10/08 10:35:17;;;;;;;0.70;0.70;;;;;;;;;;5027346;28;20597;-61
2022/10/08 10:37:48;;;;;;;0.60;0.60;;;;;;;;;;5026211;28;20212;-61
2022/10/08 10:40:33;;;;;;;0.50;0.50;;;;;;;;;;5026954;28;20228;-61
2022/10/08 10:43:12;;;;;;;2.47;0.55;;;;;;;;;;5025023;28;20247;-61
2022/10/08 10:45:42;;;;;;;0.77;0.70;;;;;;;;;;5025070;28;20227;-60
2022/10/08 10:48:10;;;;;;;1.75;0.40;;;;;;;;;;5026879;28;20548;-61
2022/10/08 10:50:40;;;;;;;0.50;0.50;;;;;;;;;;5027075;28;20203;-61
2022/10/08 10:53:14;;;;;;;1.38;0.60;;;;;;;;;;5026974;28;20215;-60
2022/10/08 10:55:50;;;;;;;4.50;0.80;;;;;;;;;;5027507;28;20207;-61
2022/10/08 10:58:27;;;;;;;1.27;0.70;;;;;;;;;;5027429;28;20215;-61
2022/10/08 11:00:57;;;;;;;1.15;0.60;;;;;;;;;;5026465;28;20231;-60
2022/10/08 11:03:27;;;;;;;2.08;0.73;;;;;;;;;;5026262;28;20294;-59
2022/10/08 11:05:58;;;;;;;0.98;0.73;;;;;;;;;;5026333;28;20200;-60
2022/10/08 11:08:34;;;;;;;0.70;0.70;;;;;;;;;;5026948;28;20279;-60
2022/10/08 11:11:07;;;;;;;2.75;0.85;;;;;;;;;;5026601;28;20704;-61
2022/10/08 11:13:41;;;;;;;2.38;0.73;;;;;;;;;;5026639;28;20623;-57
2022/10/08 11:16:13;;;;;;;2.45;0.73;;;;;;;;;;5025552;28;20305;-58
2022/10/08 11:18:44;;;;;;;0.63;0.50;;;;;;;;;;5020054;28;20204;-58
2022/10/08 11:21:17;;;;;;;1.05;0.70;;;;;;;;;;5026470;28;20571;-58
2022/10/08 11:23:57;;;;;;;0.90;0.60;;;;;;;;;;5023915;28;20200;-58
2022/10/08 11:26:28;;;;;;;0.60;0.60;;;;;;;;;;5025272;28;20244;-58
2022/10/08 11:29:00;;;;;;;0.55;0.55;;;;;;;;;;5025722;28;20215;-58
2022/10/08 11:31:33;;;;;;;1.77;1.02;;;;;;;;;;5025704;28;20211;-60
2022/10/08 11:34:00;;;;;;;3.75;1.02;;;;;;;;;;5026707;28;20215;-58
2022/10/08 11:36:31;;;;;;;0.50;0.47;;;;;;;;;;5025633;28;20211;-61
2022/10/08 11:39:04;;;;;;;0.95;0.95;;;;;;;;;;5026112;28;20212;-58
2022/10/08 11:41:33;;;;;;;1.80;0.80;;;;;;;;;;5026019;28;20224;-60
2022/10/08 11:44:01;;;;;;;3.13;0.60;;;;;;;;;;5026036;28;20239;-60
2022/10/08 11:46:29;;;;;;;2.50;0.60;;;;;;;;;;5025912;28;20234;-58
2022/10/08 11:48:57;;;;;;;0.75;0.75;;;;;;;;;;5026288;28;20211;-59
2022/10/08 11:51:28;;;;;;;0.63;0.40;;;;;;;;;;5025646;28;20203;-58
2022/10/08 11:54:04;;;;;;;0.68;0.60;;;;;;;;;;5025399;28;20211;-62
2022/10/08 11:56:31;;;;;;;1.30;0.80;;;;;;;;;;5022267;28;20313;-62
2022/10/08 11:59:00;;;;;;;4.43;0.70;;;;;;;;;;5026552;28;20208;-62
2022/10/08 12:01:27;;;;;;;2.22;0.80;;;;;;;;;;5026416;28;20227;-62
2022/10/08 12:04:03;;;;;;;0.93;0.90;;;;;;;;;;5025715;28;20224;-62
2022/10/08 12:06:33;;;;;;;1.60;0.85;;;;;;;;;;5025306;28;20754;-62
2022/10/08 12:09:03;;;;;;;2.85;0.50;;;;;;;;;;5026168;28;20215;-62
2022/10/08 12:11:50;;;;;;;0.82;0.82;;;;;;;;;;5026113;28;20218;-61
2022/10/08 12:14:27;;;;;;;1.17;0.50;;;;;;;;;;5025452;28;20211;-62
2022/10/08 12:17:11;;;;;;;0.80;0.80;;;;;;;;;;5024593;28;20211;-62
2022/10/08 12:19:56;;;;;;;2.13;0.80;;;;;;;;;;5030364;28;20223;-62
2022/10/08 12:22:43;;;;;;;2.05;0.88;;;;;;;;;;5020321;28;20207;-62
2022/10/08 12:25:25;;;;;;;1.05;0.70;;;;;;;;;;5030256;28;20594;-62
2022/10/08 12:27:53;;;;;;;1.35;0.57;;;;;;;;;;5030020;28;20228;-62
2022/10/08 12:30:20;;;;;;;1.88;0.93;;;;;;;;;;5029022;28;20296;-61
2022/10/08 12:32:55;;;;;;;1.70;0.65;;;;;;;;;;5028328;28;20223;-61
2022/10/08 12:35:23;;;;;;;1.15;0.70;;;;;;;;;;5029672;28;20208;-62
2022/10/08 12:37:59;;;;;;;0.80;0.80;;;;;;;;;;5030135;28;20215;-63
2022/10/08 12:40:31;;;;;;;0.63;0.57;;;;;;;;;;5028704;28;20228;-62
2022/10/08 12:43:07;;;;;;;0.63;0.63;;;;;;;;;;5029131;28;20211;-62
2022/10/08 12:45:39;;;;;;;0.60;0.60;;;;;;;;;;5028575;28;20765;-62
2022/10/08 12:48:12;;;;;;;0.50;0.50;;;;;;;;;;5027365;28;20686;-62
2022/10/08 12:50:43;;;;;;;2.78;0.80;;;;;;;;;;5029230;28;20203;-63
2022/10/08 12:53:13;;;;;;;1.50;0.90;;;;;;;;;;5029730;28;20209;-62
2022/10/08 12:55:45;;;;;;;1.23;0.75;;;;;;;;;;5029644;28;20234;-62
2022/10/08 12:58:16;;;;;;;1.15;0.60;;;;;;;;;;5029429;28;20321;-62
2022/10/08 13:00:44;;;;;;;0.93;0.80;;;;;;;;;;5029073;28;20785;-62
2022/10/08 13:03:14;;;;;;;0.80;0.80;;;;;;;;;;5028898;28;20278;-63
2022/10/08 13:05:42;;;;;;;1.42;0.60;;;;;;;;;;5029610;28;20234;-62
2022/10/08 13:08:18;;;;;;;0.60;0.60;;;;;;;;;;5029640;28;20314;-62
2022/10/08 13:10:45;;;;;;;1.92;0.85;;;;;;;;;;5029363;28;20203;-59
2022/10/08 13:13:27;;;;;;;2.53;0.80;;;;;;;;;;5029388;28;20223;-59
2022/10/08 13:16:00;;;;;;;0.80;0.68;;;;;;;;;;5026564;28;20203;-59
2022/10/08 13:18:29;;;;;;;2.60;0.80;;;;;;;;;;5029449;28;20204;-59
2022/10/08 13:20:57;;;;;;;0.82;0.77;;;;;;;;;;5023501;28;20270;-59
2022/10/08 13:23:24;;;;;;;0.80;0.80;;;;;;;;;;5029262;28;20228;-59
2022/10/08 13:25:51;;;;;;;1.33;0.75;;;;;;;;;;5028688;28;20201;-60
2022/10/08 13:28:22;;;;;;;2.00;0.68;;;;;;;;;;5028816;28;20709;-59
2022/10/08 13:30:50;;;;;;;0.70;0.60;;;;;;;;;;5028254;28;20211;-60
2022/10/08 13:33:20;;;;;;;1.42;0.60;;;;;;;;;;5029050;28;20213;-59
2022/10/08 13:35:51;;;;;;;0.65;0.65;;;;;;;;;;5029190;28;20215;-60
2022/10/08 13:38:21;;;;;;;1.67;0.70;;;;;;;;;;5029102;28;20219;-59
2022/10/08 13:40:52;;;;;;;0.90;0.90;;;;;;;;;;5028602;28;20224;-59
2022/10/08 13:43:19;;;;;;;2.78;0.73;;;;;;;;;;5027978;28;20208;-59
2022/10/08 13:45:46;;;;;;;0.50;0.50;;;;;;;;;;5028070;28;20593;-59
2022/10/08 13:48:14;;;;;;;3.53;0.82;;;;;;;;;;5029168;28;20695;-59
2022/10/08 13:50:47;;;;;;;2.60;0.80;;;;;;;;;;5028424;28;20247;-62
2022/10/08 13:53:15;;;;;;;0.63;0.60;;;;;;;;;;5028406;28;20216;-63
2022/10/08 13:55:44;;;;;;;0.60;0.60;;;;;;;;;;5027181;28;20201;-62
2022/10/08 13:58:12;;;;;;;0.47;0.40;;;;;;;;;;5027913;28;20196;-62
2022/10/08 14:00:40;;;;;;;3.13;0.70;;;;;;;;;;5028075;28;20208;-62
2022/10/08 14:03:07;;;;;;;0.75;0.75;;;;;;;;;;5027845;28;20251;-63
2022/10/08 14:05:37;;;;;;;0.82;0.52;;;;;;;;;;5028163;28;20208;-62
2022/10/08 14:08:06;;;;;;;1.15;0.50;;;;;;;;;;5028431;28;20230;-61
2022/10/08 14:10:33;;;;;;;0.65;0.60;;;;;;;;;;5028309;28;20207;-62
2022/10/08 14:13:00;;;;;;;3.42;0.70;;;;;;;;;;5027752;28;20196;-62
2022/10/08 14:15:27;;;;;;;0.50;0.50;;;;;;;;;;5027931;28;20219;-62
2022/10/08 14:17:54;;;;;;;0.57;0.57;;;;;;;;;;5027844;28;20208;-62
2022/10/08 14:20:21;;;;;;;0.50;0.50;;;;;;;;;;5027819;28;20203;-62
2022/10/08 14:22:48;;;;;;;0.45;0.45;;;;;;;;;;5027905;28;20271;-62
2022/10/08 14:25:17;;;;;;;0.88;0.63;;;;;;;;;;5028193;28;20211;-63
2022/10/08 14:27:44;;;;;;;1.17;0.60;;;;;;;;;;5028023;28;20236;-62
2022/10/08 14:30:12;;;;;;;0.73;0.60;;;;;;;;;;5027671;28;20613;-62
2022/10/08 14:32:40;;;;;;;0.65;0.60;;;;;;;;;;5028307;28;20292;-62
2022/10/08 14:35:08;;;;;;;0.50;0.50;;;;;;;;;;5027124;28;20212;-62
2022/10/08 14:37:35;;;;;;;1.10;0.60;;;;;;;;;;5027961;28;20208;-62
2022/10/08 14:40:03;;;;;;;0.65;0.40;;;;;;;;;;5027372;28;20217;-63
2022/10/08 14:42:31;;;;;;;1.20;0.82;;;;;;;;;;5024098;28;20282;-62
2022/10/08 14:44:58;;;;;;;0.65;0.45;;;;;;;;;;5017466;28;20219;-62
2022/10/08 14:47:25;;;;;;;1.10;0.45;;;;;;;;;;5027293;28;20302;-62
2022/10/08 14:49:52;;;;;;;0.50;0.50;;;;;;;;;;5012830;28;20205;-62
2022/10/08 14:52:19;;;;;;;1.85;0.43;;;;;;;;;;5016342;28;20212;-62
2022/10/08 14:54:46;;;;;;;0.47;0.30;;;;;;;;;;5027338;28;20212;-63
2022/10/08 14:57:13;;;;;;;1.60;0.50;;;;;;;;;;5027626;28;20223;-62